sensor_id;sensor_type;location;lat;lon;timestamp;temperature;humidity
42479;DHT22;28110;47.080;9.476;2023-08-06T00:01:49;14.90;99.90
42479;DHT22;28110;47.080;9.476;2023-08-06T00:04:15;14.90;99.90
42479;DHT22;28110;47.080;9.476;2023-08-06T00:06:40;14.80;99.90
42479;DHT22;28110;47.080;9.476;2023-08-06T00:09:06;14.90;99.90
42479;DHT22;28110;47.080;9.476;2023-08-06T00:11:31;14.80;99.90
42479;DHT22;28110;47.080;9.476;2023-08-06T00:13:57;14.80;99.90
42479;DHT22;28110;47.080;9.476;2023-08-06T00:16:23;14.80;99.90
42479;DHT22;28110;47.080;9.476;2023-08-06T00:18:48;14.80;99.90
42479;DHT22;28110;47.080;9.476;2023-08-06T00:21:14;14.70;99.90
42479;DHT22;28110;47.080;9.476;2023-08-06T00:23:40;14.80;99.90
42479;DHT22;28110;47.080;9.476;2023-08-06T00:26:06;14.70;99.90
42479;DHT22;28110;47.080;9.476;2023-08-06T00:28:31;14.70;99.90
42479;DHT22;28110;47.080;9.476;2023-08-06T00:30:57;14.80;99.90
42479;DHT22;28110;47.080;9.476;2023-08-06T00:33:23;14.70;99.90
42479;DHT22;28110;47.080;9.476;2023-08-06T00:35:49;14.70;99.90
42479;DHT22;28110;47.080;9.476;2023-08-06T00:38:14;14.70;99.90
42479;DHT22;28110;47.080;9.476;2023-08-06T00:40:40;14.70;99.90
42479;DHT22;28110;47.080;9.476;2023-08-06T00:43:06;14.70;99.90
42479;DHT22;28110;47.080;9.476;2023-08-06T00:45:36;14.70;99.90
42479;DHT22;28110;47.080;9.476;2023-08-06T00:48:03;14.70;99.90
42479;DHT22;28110;47.080;9.476;2023-08-06T00:50:29;14.60;99.90
42479;DHT22;28110;47.080;9.476;2023-08-06T00:52:55;14.60;99.90
42479;DHT22;28110;47.080;9.476;2023-08-06T00:55:21;14.60;99.90
42479;DHT22;28110;47.080;9.476;2023-08-06T00:57:46;14.60;99.90
42479;DHT22;28110;47.080;9.476;2023-08-06T01:00:12;14.60;99.90
42479;DHT22;28110;47.080;9.476;2023-08-06T01:02:37;14.60;99.90
42479;DHT22;28110;47.080;9.476;2023-08-06T01:05:03;14.60;99.90
42479;DHT22;28110;47.080;9.476;2023-08-06T01:07:50;14.60;99.90
42479;DHT22;28110;47.080;9.476;2023-08-06T01:13:39;14.60;99.90
42479;DHT22;28110;47.080;9.476;2023-08-06T01:16:07;14.60;99.90
42479;DHT22;28110;47.080;9.476;2023-08-06T01:18:34;14.60;99.90
42479;DHT22;28110;47.080;9.476;2023-08-06T01:21:00;14.60;99.90
42479;DHT22;28110;47.080;9.476;2023-08-06T01:23:26;14.60;99.90
42479;DHT22;28110;47.080;9.476;2023-08-06T01:31:33;14.70;99.90
42479;DHT22;28110;47.080;9.476;2023-08-06T01:34:01;14.60;99.90
42479;DHT22;28110;47.080;9.476;2023-08-06T01:36:28;14.60;99.90
42479;DHT22;28110;47.080;9.476;2023-08-06T01:38:54;14.60;99.90
42479;DHT22;28110;47.080;9.476;2023-08-06T01:41:19;14.50;99.90
42479;DHT22;28110;47.080;9.476;2023-08-06T01:43:45;14.50;99.90
42479;DHT22;28110;47.080;9.476;2023-08-06T01:46:11;14.50;99.90
42479;DHT22;28110;47.080;9.476;2023-08-06T01:48:36;14.50;99.90
42479;DHT22;28110;47.080;9.476;2023-08-06T01:51:04;14.50;99.90
42479;DHT22;28110;47.080;9.476;2023-08-06T01:53:31;14.40;99.90
42479;DHT22;28110;47.080;9.476;2023-08-06T01:55:57;14.40;99.90
42479;DHT22;28110;47.080;9.476;2023-08-06T01:58:22;14.40;99.90
42479;DHT22;28110;47.080;9.476;2023-08-06T02:00:48;14.40;99.90
42479;DHT22;28110;47.080;9.476;2023-08-06T02:03:13;14.30;99.90
42479;DHT22;28110;47.080;9.476;2023-08-06T02:05:40;14.40;99.90
42479;DHT22;28110;47.080;9.476;2023-08-06T02:08:05;14.30;99.90
42479;DHT22;28110;47.080;9.476;2023-08-06T02:10:31;14.40;99.90
42479;DHT22;28110;47.080;9.476;2023-08-06T02:12:56;14.30;99.90
42479;DHT22;28110;47.080;9.476;2023-08-06T02:15:22;14.30;99.90
42479;DHT22;28110;47.080;9.476;2023-08-06T02:17:47;14.30;99.90
42479;DHT22;28110;47.080;9.476;2023-08-06T02:20:13;14.20;99.90
42479;DHT22;28110;47.080;9.476;2023-08-06T02:22:38;14.20;99.90
42479;DHT22;28110;47.080;9.476;2023-08-06T02:25:04;14.20;99.90
42479;DHT22;28110;47.080;9.476;2023-08-06T02:27:30;14.20;99.90
42479;DHT22;28110;47.080;9.476;2023-08-06T02:29:55;14.20;99.90
42479;DHT22;28110;47.080;9.476;2023-08-06T02:32:21;14.20;99.90
42479;DHT22;28110;47.080;9.476;2023-08-06T02:34:47;14.20;99.90
42479;DHT22;28110;47.080;9.476;2023-08-06T02:37:12;14.20;99.90
42479;DHT22;28110;47.080;9.476;2023-08-06T02:39:38;14.10;99.90
42479;DHT22;28110;47.080;9.476;2023-08-06T02:42:06;14.10;99.90
42479;DHT22;28110;47.080;9.476;2023-08-06T02:44:33;14.10;99.90
42479;DHT22;28110;47.080;9.476;2023-08-06T02:46:59;14.10;99.90
42479;DHT22;28110;47.080;9.476;2023-08-06T02:49:25;14.10;99.90
42479;DHT22;28110;47.080;9.476;2023-08-06T02:51:50;14.10;99.90
42479;DHT22;28110;47.080;9.476;2023-08-06T02:54:16;14.10;99.90
42479;DHT22;28110;47.080;9.476;2023-08-06T02:56:47;14.00;99.90
42479;DHT22;28110;47.080;9.476;2023-08-06T02:59:13;14.00;99.90
42479;DHT22;28110;47.080;9.476;2023-08-06T03:01:39;14.00;99.90
42479;DHT22;28110;47.080;9.476;2023-08-06T03:04:05;13.90;99.90
42479;DHT22;28110;47.080;9.476;2023-08-06T03:06:31;13.80;99.90
42479;DHT22;28110;47.080;9.476;2023-08-06T03:08:57;13.80;99.90
42479;DHT22;28110;47.080;9.476;2023-08-06T03:11:22;13.80;99.90
42479;DHT22;28110;47.080;9.476;2023-08-06T03:13:48;13.70;99.90
42479;DHT22;28110;47.080;9.476;2023-08-06T03:16:14;13.60;99.90
42479;DHT22;28110;47.080;9.476;2023-08-06T03:18:39;13.60;99.90
42479;DHT22;28110;47.080;9.476;2023-08-06T03:21:05;13.60;99.90
42479;DHT22;28110;47.080;9.476;2023-08-06T03:23:31;13.60;99.90
42479;DHT22;28110;47.080;9.476;2023-08-06T03:26:01;13.60;99.90
42479;DHT22;28110;47.080;9.476;2023-08-06T03:28:27;13.60;99.90
42479;DHT22;28110;47.080;9.476;2023-08-06T03:30:59;13.60;99.90
42479;DHT22;28110;47.080;9.476;2023-08-06T03:33:25;13.50;99.90
42479;DHT22;28110;47.080;9.476;2023-08-06T03:35:51;13.50;99.90
42479;DHT22;28110;47.080;9.476;2023-08-06T03:38:16;13.60;99.90
42479;DHT22;28110;47.080;9.476;2023-08-06T03:40:42;13.50;99.90
42479;DHT22;28110;47.080;9.476;2023-08-06T03:43:08;13.60;99.90
42479;DHT22;28110;47.080;9.476;2023-08-06T03:45:34;13.60;99.90
42479;DHT22;28110;47.080;9.476;2023-08-06T03:47:59;13.60;99.90
42479;DHT22;28110;47.080;9.476;2023-08-06T03:50:25;13.60;99.90
42479;DHT22;28110;47.080;9.476;2023-08-06T03:52:50;13.60;99.90
42479;DHT22;28110;47.080;9.476;2023-08-06T03:55:16;13.60;99.90
42479;DHT22;28110;47.080;9.476;2023-08-06T03:57:41;13.60;99.90
42479;DHT22;28110;47.080;9.476;2023-08-06T04:00:07;13.60;99.90
42479;DHT22;28110;47.080;9.476;2023-08-06T04:02:33;13.60;99.90
42479;DHT22;28110;47.080;9.476;2023-08-06T04:04:58;13.60;99.90
42479;DHT22;28110;47.080;9.476;2023-08-06T04:07:24;13.60;99.90
42479;DHT22;28110;47.080;9.476;2023-08-06T04:10:01;13.50;99.90
42479;DHT22;28110;47.080;9.476;2023-08-06T04:12:27;13.50;99.90
42479;DHT22;28110;47.080;9.476;2023-08-06T04:14:53;13.50;99.90
42479;DHT22;28110;47.080;9.476;2023-08-06T04:17:19;13.50;99.90
42479;DHT22;28110;47.080;9.476;2023-08-06T04:19:53;13.50;99.90
42479;DHT22;28110;47.080;9.476;2023-08-06T04:22:19;13.50;99.90
42479;DHT22;28110;47.080;9.476;2023-08-06T04:24:45;13.50;99.90
42479;DHT22;28110;47.080;9.476;2023-08-06T04:27:11;13.50;99.90
42479;DHT22;28110;47.080;9.476;2023-08-06T04:29:37;13.40;99.90
42479;DHT22;28110;47.080;9.476;2023-08-06T04:32:07;13.40;99.90
42479;DHT22;28110;47.080;9.476;2023-08-06T04:34:34;13.40;99.90
42479;DHT22;28110;47.080;9.476;2023-08-06T04:37:00;13.40;99.90
42479;DHT22;28110;47.080;9.476;2023-08-06T04:39:26;13.40;99.90
42479;DHT22;28110;47.080;9.476;2023-08-06T04:41:51;13.40;99.90
42479;DHT22;28110;47.080;9.476;2023-08-06T04:44:17;13.30;99.90
42479;DHT22;28110;47.080;9.476;2023-08-06T04:46:43;13.30;99.90
42479;DHT22;28110;47.080;9.476;2023-08-06T04:49:08;13.30;99.90
42479;DHT22;28110;47.080;9.476;2023-08-06T04:51:34;13.30;99.90
42479;DHT22;28110;47.080;9.476;2023-08-06T04:53:59;13.40;99.90
42479;DHT22;28110;47.080;9.476;2023-08-06T04:56:25;13.40;99.90
42479;DHT22;28110;47.080;9.476;2023-08-06T04:58:51;13.40;99.90
42479;DHT22;28110;47.080;9.476;2023-08-06T05:01:16;13.40;99.90
42479;DHT22;28110;47.080;9.476;2023-08-06T05:03:42;13.40;99.90
42479;DHT22;28110;47.080;9.476;2023-08-06T05:06:08;13.40;99.90
42479;DHT22;28110;47.080;9.476;2023-08-06T05:08:33;13.50;99.90
42479;DHT22;28110;47.080;9.476;2023-08-06T05:10:59;13.50;99.90
42479;DHT22;28110;47.080;9.476;2023-08-06T05:13:24;13.50;99.90
42479;DHT22;28110;47.080;9.476;2023-08-06T05:15:51;13.50;99.90
42479;DHT22;28110;47.080;9.476;2023-08-06T05:18:16;13.50;99.90
42479;DHT22;28110;47.080;9.476;2023-08-06T05:20:42;13.60;99.90
42479;DHT22;28110;47.080;9.476;2023-08-06T05:23:08;13.60;99.90
42479;DHT22;28110;47.080;9.476;2023-08-06T05:25:35;13.60;99.90
42479;DHT22;28110;47.080;9.476;2023-08-06T05:28:01;13.60;99.90
42479;DHT22;28110;47.080;9.476;2023-08-06T05:30:27;13.60;99.90
42479;DHT22;28110;47.080;9.476;2023-08-06T05:32:53;13.60;99.90
42479;DHT22;28110;47.080;9.476;2023-08-06T05:35:18;13.70;99.90
42479;DHT22;28110;47.080;9.476;2023-08-06T05:37:44;13.70;99.90
42479;DHT22;28110;47.080;9.476;2023-08-06T05:40:09;13.70;99.90
42479;DHT22;28110;47.080;9.476;2023-08-06T05:42:35;13.80;99.90
42479;DHT22;28110;47.080;9.476;2023-08-06T05:45:00;13.80;99.90
42479;DHT22;28110;47.080;9.476;2023-08-06T05:47:26;13.80;99.90
42479;DHT22;28110;47.080;9.476;2023-08-06T05:49:51;13.80;99.90
42479;DHT22;28110;47.080;9.476;2023-08-06T05:52:17;13.90;99.90
42479;DHT22;28110;47.080;9.476;2023-08-06T05:54:42;13.80;99.90
42479;DHT22;28110;47.080;9.476;2023-08-06T05:57:08;13.80;99.90
42479;DHT22;28110;47.080;9.476;2023-08-06T05:59:33;13.90;99.90
42479;DHT22;28110;47.080;9.476;2023-08-06T06:01:59;13.90;99.90
42479;DHT22;28110;47.080;9.476;2023-08-06T06:04:25;13.90;99.90
42479;DHT22;28110;47.080;9.476;2023-08-06T06:06:50;14.00;99.90
42479;DHT22;28110;47.080;9.476;2023-08-06T06:09:16;14.10;99.90
42479;DHT22;28110;47.080;9.476;2023-08-06T06:11:42;14.10;99.90
42479;DHT22;28110;47.080;9.476;2023-08-06T06:14:07;14.10;99.90
42479;DHT22;28110;47.080;9.476;2023-08-06T06:16:34;14.10;99.90
42479;DHT22;28110;47.080;9.476;2023-08-06T06:18:59;14.20;99.90
42479;DHT22;28110;47.080;9.476;2023-08-06T06:21:25;14.20;99.90
42479;DHT22;28110;47.080;9.476;2023-08-06T06:23:50;14.30;99.90
42479;DHT22;28110;47.080;9.476;2023-08-06T06:26:19;14.30;99.90
42479;DHT22;28110;47.080;9.476;2023-08-06T06:28:44;14.30;99.90
42479;DHT22;28110;47.080;9.476;2023-08-06T06:31:10;14.40;99.90
42479;DHT22;28110;47.080;9.476;2023-08-06T06:33:36;14.40;99.90
42479;DHT22;28110;47.080;9.476;2023-08-06T06:36:01;14.40;99.90
42479;DHT22;28110;47.080;9.476;2023-08-06T06:38:30;14.40;99.90
42479;DHT22;28110;47.080;9.476;2023-08-06T06:40:56;14.50;99.90
42479;DHT22;28110;47.080;9.476;2023-08-06T06:43:22;14.50;99.90
42479;DHT22;28110;47.080;9.476;2023-08-06T06:45:58;14.30;99.90
42479;DHT22;28110;47.080;9.476;2023-08-06T06:48:26;14.40;99.90
42479;DHT22;28110;47.080;9.476;2023-08-06T06:50:52;14.30;99.90
42479;DHT22;28110;47.080;9.476;2023-08-06T06:53:17;14.30;99.90
42479;DHT22;28110;47.080;9.476;2023-08-06T06:55:43;14.20;99.90
42479;DHT22;28110;47.080;9.476;2023-08-06T06:58:08;14.20;99.90
42479;DHT22;28110;47.080;9.476;2023-08-06T07:00:38;14.20;99.90
42479;DHT22;28110;47.080;9.476;2023-08-06T07:03:04;14.20;99.90
42479;DHT22;28110;47.080;9.476;2023-08-06T07:05:29;14.20;99.90
42479;DHT22;28110;47.080;9.476;2023-08-06T07:07:55;14.10;99.90
42479;DHT22;28110;47.080;9.476;2023-08-06T07:10:20;14.10;99.90
42479;DHT22;28110;47.080;9.476;2023-08-06T07:12:46;14.10;99.90
42479;DHT22;28110;47.080;9.476;2023-08-06T07:15:12;14.10;99.90
42479;DHT22;28110;47.080;9.476;2023-08-06T07:17:37;14.00;99.90
42479;DHT22;28110;47.080;9.476;2023-08-06T07:20:03;14.10;99.90
42479;DHT22;28110;47.080;9.476;2023-08-06T07:22:29;14.10;99.90
42479;DHT22;28110;47.080;9.476;2023-08-06T07:24:55;14.10;99.90
42479;DHT22;28110;47.080;9.476;2023-08-06T07:27:20;14.10;99.90
42479;DHT22;28110;47.080;9.476;2023-08-06T07:29:46;14.10;99.90
42479;DHT22;28110;47.080;9.476;2023-08-06T07:32:11;14.10;99.90
42479;DHT22;28110;47.080;9.476;2023-08-06T07:34:37;14.20;99.90
42479;DHT22;28110;47.080;9.476;2023-08-06T07:37:03;14.10;99.90
42479;DHT22;28110;47.080;9.476;2023-08-06T07:39:28;14.10;99.90
42479;DHT22;28110;47.080;9.476;2023-08-06T07:41:54;14.20;99.90
42479;DHT22;28110;47.080;9.476;2023-08-06T07:44:19;14.20;99.90
42479;DHT22;28110;47.080;9.476;2023-08-06T07:46:45;14.30;99.90
42479;DHT22;28110;47.080;9.476;2023-08-06T07:49:10;14.30;99.90
42479;DHT22;28110;47.080;9.476;2023-08-06T07:51:36;14.30;99.90
42479;DHT22;28110;47.080;9.476;2023-08-06T07:54:02;14.30;99.90
42479;DHT22;28110;47.080;9.476;2023-08-06T07:56:28;14.50;99.90
42479;DHT22;28110;47.080;9.476;2023-08-06T07:58:54;14.50;99.90
42479;DHT22;28110;47.080;9.476;2023-08-06T08:01:19;14.60;99.90
42479;DHT22;28110;47.080;9.476;2023-08-06T08:03:45;14.60;99.90
42479;DHT22;28110;47.080;9.476;2023-08-06T08:06:11;14.60;99.90
42479;DHT22;28110;47.080;9.476;2023-08-06T08:08:36;14.50;99.90
42479;DHT22;28110;47.080;9.476;2023-08-06T08:11:04;14.50;99.90
42479;DHT22;28110;47.080;9.476;2023-08-06T08:13:29;14.50;99.90
42479;DHT22;28110;47.080;9.476;2023-08-06T08:15:58;14.50;99.90
42479;DHT22;28110;47.080;9.476;2023-08-06T08:18:24;14.60;99.90
42479;DHT22;28110;47.080;9.476;2023-08-06T08:20:50;14.60;99.90
42479;DHT22;28110;47.080;9.476;2023-08-06T08:23:16;14.70;99.90
42479;DHT22;28110;47.080;9.476;2023-08-06T08:25:41;14.80;99.90
42479;DHT22;28110;47.080;9.476;2023-08-06T08:28:07;14.90;99.90
42479;DHT22;28110;47.080;9.476;2023-08-06T08:30:33;15.00;99.90
42479;DHT22;28110;47.080;9.476;2023-08-06T08:32:58;15.20;99.90
42479;DHT22;28110;47.080;9.476;2023-08-06T08:35:24;15.30;99.90
42479;DHT22;28110;47.080;9.476;2023-08-06T08:37:50;15.40;99.90
42479;DHT22;28110;47.080;9.476;2023-08-06T08:40:15;15.50;99.90
42479;DHT22;28110;47.080;9.476;2023-08-06T08:42:42;15.50;99.90
42479;DHT22;28110;47.080;9.476;2023-08-06T08:45:13;15.60;99.90
42479;DHT22;28110;47.080;9.476;2023-08-06T08:47:40;15.70;99.90
42479;DHT22;28110;47.080;9.476;2023-08-06T08:50:08;15.70;99.90
42479;DHT22;28110;47.080;9.476;2023-08-06T08:52:35;15.70;99.90
42479;DHT22;28110;47.080;9.476;2023-08-06T08:55:01;15.70;99.90
42479;DHT22;28110;47.080;9.476;2023-08-06T08:57:27;15.70;99.90
42479;DHT22;28110;47.080;9.476;2023-08-06T08:59:53;15.70;99.90
42479;DHT22;28110;47.080;9.476;2023-08-06T09:02:21;15.60;99.90
42479;DHT22;28110;47.080;9.476;2023-08-06T09:04:48;15.60;99.90
42479;DHT22;28110;47.080;9.476;2023-08-06T09:07:17;15.60;99.90
42479;DHT22;28110;47.080;9.476;2023-08-06T09:09:43;15.60;99.90
42479;DHT22;28110;47.080;9.476;2023-08-06T09:12:15;15.50;99.90
42479;DHT22;28110;47.080;9.476;2023-08-06T09:14:41;15.60;99.90
42479;DHT22;28110;47.080;9.476;2023-08-06T09:17:07;15.60;99.90
42479;DHT22;28110;47.080;9.476;2023-08-06T09:19:33;15.60;99.90
42479;DHT22;28110;47.080;9.476;2023-08-06T09:21:59;15.50;99.90
42479;DHT22;28110;47.080;9.476;2023-08-06T09:24:24;15.50;99.90
42479;DHT22;28110;47.080;9.476;2023-08-06T09:26:51;15.50;99.90
42479;DHT22;28110;47.080;9.476;2023-08-06T09:29:17;15.40;99.90
42479;DHT22;28110;47.080;9.476;2023-08-06T09:34:15;15.40;99.90
42479;DHT22;28110;47.080;9.476;2023-08-06T09:36:43;15.30;99.90
42479;DHT22;28110;47.080;9.476;2023-08-06T09:39:15;15.10;99.90
42479;DHT22;28110;47.080;9.476;2023-08-06T09:41:42;15.10;99.90
42479;DHT22;28110;47.080;9.476;2023-08-06T09:44:21;15.00;99.90
42479;DHT22;28110;47.080;9.476;2023-08-06T09:46:49;15.00;99.90
42479;DHT22;28110;47.080;9.476;2023-08-06T09:49:17;14.90;99.90
42479;DHT22;28110;47.080;9.476;2023-08-06T09:51:43;14.70;99.90
42479;DHT22;28110;47.080;9.476;2023-08-06T09:54:12;14.70;99.90
42479;DHT22;28110;47.080;9.476;2023-08-06T09:56:38;14.80;99.90
42479;DHT22;28110;47.080;9.476;2023-08-06T09:59:07;14.70;99.90
42479;DHT22;28110;47.080;9.476;2023-08-06T10:01:35;14.70;99.90
42479;DHT22;28110;47.080;9.476;2023-08-06T10:04:03;14.70;99.90
42479;DHT22;28110;47.080;9.476;2023-08-06T10:06:31;14.80;99.90
42479;DHT22;28110;47.080;9.476;2023-08-06T10:08:58;14.80;99.90
42479;DHT22;28110;47.080;9.476;2023-08-06T10:11:24;14.90;99.90
42479;DHT22;28110;47.080;9.476;2023-08-06T10:13:58;14.90;99.90
42479;DHT22;28110;47.080;9.476;2023-08-06T10:16:25;14.90;99.90
42479;DHT22;28110;47.080;9.476;2023-08-06T10:18:51;15.10;99.90
42479;DHT22;28110;47.080;9.476;2023-08-06T10:21:18;15.40;99.90
42479;DHT22;28110;47.080;9.476;2023-08-06T10:23:43;15.70;99.90
42479;DHT22;28110;47.080;9.476;2023-08-06T10:26:09;15.90;99.90
42479;DHT22;28110;47.080;9.476;2023-08-06T10:28:39;16.10;99.90
42479;DHT22;28110;47.080;9.476;2023-08-06T10:31:05;16.20;99.90
42479;DHT22;28110;47.080;9.476;2023-08-06T10:33:44;16.20;99.90
42479;DHT22;28110;47.080;9.476;2023-08-06T10:36:10;16.40;99.90
42479;DHT22;28110;47.080;9.476;2023-08-06T10:38:47;16.60;99.90
42479;DHT22;28110;47.080;9.476;2023-08-06T10:41:23;16.70;99.90
42479;DHT22;28110;47.080;9.476;2023-08-06T10:43:49;16.90;99.90
42479;DHT22;28110;47.080;9.476;2023-08-06T10:46:27;17.00;99.90
42479;DHT22;28110;47.080;9.476;2023-08-06T10:48:53;17.00;99.90
42479;DHT22;28110;47.080;9.476;2023-08-06T10:51:19;16.90;99.90
42479;DHT22;28110;47.080;9.476;2023-08-06T10:53:48;17.00;99.90
42479;DHT22;28110;47.080;9.476;2023-08-06T10:56:17;17.20;99.90
42479;DHT22;28110;47.080;9.476;2023-08-06T10:58:45;17.40;99.90
42479;DHT22;28110;47.080;9.476;2023-08-06T11:01:11;17.30;99.90
42479;DHT22;28110;47.080;9.476;2023-08-06T11:03:37;17.50;99.90
42479;DHT22;28110;47.080;9.476;2023-08-06T11:06:03;17.70;99.90
42479;DHT22;28110;47.080;9.476;2023-08-06T11:08:35;17.90;99.90
42479;DHT22;28110;47.080;9.476;2023-08-06T11:11:14;18.10;99.90
42479;DHT22;28110;47.080;9.476;2023-08-06T11:13:41;18.40;99.90
42479;DHT22;28110;47.080;9.476;2023-08-06T11:16:08;18.40;99.90
42479;DHT22;28110;47.080;9.476;2023-08-06T11:18:34;18.50;99.90
42479;DHT22;28110;47.080;9.476;2023-08-06T11:21:00;18.60;99.90
42479;DHT22;28110;47.080;9.476;2023-08-06T11:23:29;18.50;99.90
42479;DHT22;28110;47.080;9.476;2023-08-06T11:25:56;18.50;99.90
42479;DHT22;28110;47.080;9.476;2023-08-06T11:28:21;18.30;99.90
42479;DHT22;28110;47.080;9.476;2023-08-06T11:30:48;18.10;99.90
42479;DHT22;28110;47.080;9.476;2023-08-06T11:33:14;17.90;99.90
42479;DHT22;28110;47.080;9.476;2023-08-06T11:35:40;17.70;99.90
42479;DHT22;28110;47.080;9.476;2023-08-06T11:38:06;17.50;99.90
42479;DHT22;28110;47.080;9.476;2023-08-06T11:40:32;17.30;99.90
42479;DHT22;28110;47.080;9.476;2023-08-06T11:42:58;17.20;99.90
42479;DHT22;28110;47.080;9.476;2023-08-06T11:45:26;17.20;99.90
42479;DHT22;28110;47.080;9.476;2023-08-06T11:47:52;17.00;99.90
42479;DHT22;28110;47.080;9.476;2023-08-06T11:50:27;16.80;99.90
42479;DHT22;28110;47.080;9.476;2023-08-06T11:52:58;16.80;99.90
42479;DHT22;28110;47.080;9.476;2023-08-06T11:55:25;16.80;99.90
42479;DHT22;28110;47.080;9.476;2023-08-06T11:57:50;16.80;99.90
42479;DHT22;28110;47.080;9.476;2023-08-06T12:00:17;16.90;99.90
42479;DHT22;28110;47.080;9.476;2023-08-06T12:02:45;17.00;99.90
42479;DHT22;28110;47.080;9.476;2023-08-06T12:07:39;17.30;99.90
42479;DHT22;28110;47.080;9.476;2023-08-06T12:10:05;17.40;99.90
42479;DHT22;28110;47.080;9.476;2023-08-06T12:12:31;17.40;99.90
42479;DHT22;28110;47.080;9.476;2023-08-06T12:14:57;17.50;99.90
42479;DHT22;28110;47.080;9.476;2023-08-06T12:17:23;17.50;99.90
42479;DHT22;28110;47.080;9.476;2023-08-06T12:19:49;17.60;99.90
42479;DHT22;28110;47.080;9.476;2023-08-06T12:22:16;17.60;99.90
42479;DHT22;28110;47.080;9.476;2023-08-06T12:24:46;17.60;99.90
42479;DHT22;28110;47.080;9.476;2023-08-06T12:27:12;17.80;99.90
42479;DHT22;28110;47.080;9.476;2023-08-06T12:29:41;17.70;99.90
42479;DHT22;28110;47.080;9.476;2023-08-06T12:32:08;17.60;99.90
42479;DHT22;28110;47.080;9.476;2023-08-06T12:34:33;17.50;99.90
42479;DHT22;28110;47.080;9.476;2023-08-06T12:36:59;17.40;99.90
42479;DHT22;28110;47.080;9.476;2023-08-06T12:39:24;17.50;99.90
42479;DHT22;28110;47.080;9.476;2023-08-06T12:41:50;17.70;99.90
42479;DHT22;28110;47.080;9.476;2023-08-06T12:44:16;17.90;99.90
42479;DHT22;28110;47.080;9.476;2023-08-06T12:46:41;17.90;99.90
42479;DHT22;28110;47.080;9.476;2023-08-06T12:49:07;18.00;99.90
42479;DHT22;28110;47.080;9.476;2023-08-06T12:51:32;18.00;99.90
42479;DHT22;28110;47.080;9.476;2023-08-06T12:53:59;18.00;99.90
42479;DHT22;28110;47.080;9.476;2023-08-06T12:56:24;18.10;99.90
42479;DHT22;28110;47.080;9.476;2023-08-06T12:58:50;18.40;99.90
42479;DHT22;28110;47.080;9.476;2023-08-06T13:01:15;18.50;99.90
42479;DHT22;28110;47.080;9.476;2023-08-06T13:03:41;18.60;99.90
42479;DHT22;28110;47.080;9.476;2023-08-06T13:06:07;18.80;99.90
42479;DHT22;28110;47.080;9.476;2023-08-06T13:08:34;19.00;99.90
42479;DHT22;28110;47.080;9.476;2023-08-06T13:11:00;18.90;99.90
42479;DHT22;28110;47.080;9.476;2023-08-06T13:13:26;18.90;99.90
42479;DHT22;28110;47.080;9.476;2023-08-06T13:15:52;18.90;99.90
42479;DHT22;28110;47.080;9.476;2023-08-06T13:18:18;18.90;99.90
42479;DHT22;28110;47.080;9.476;2023-08-06T13:20:43;19.00;99.90
42479;DHT22;28110;47.080;9.476;2023-08-06T13:23:09;18.90;99.90
42479;DHT22;28110;47.080;9.476;2023-08-06T13:25:34;18.80;99.90
42479;DHT22;28110;47.080;9.476;2023-08-06T13:28:03;18.80;99.90
42479;DHT22;28110;47.080;9.476;2023-08-06T13:30:29;18.70;99.90
42479;DHT22;28110;47.080;9.476;2023-08-06T13:32:54;18.60;99.90
42479;DHT22;28110;47.080;9.476;2023-08-06T13:35:22;18.50;99.90
42479;DHT22;28110;47.080;9.476;2023-08-06T13:37:47;18.40;99.90
42479;DHT22;28110;47.080;9.476;2023-08-06T13:40:13;18.20;99.90
42479;DHT22;28110;47.080;9.476;2023-08-06T13:42:39;18.10;99.90
42479;DHT22;28110;47.080;9.476;2023-08-06T13:45:06;17.80;99.90
42479;DHT22;28110;47.080;9.476;2023-08-06T13:47:31;17.60;99.90
42479;DHT22;28110;47.080;9.476;2023-08-06T13:49:57;17.40;99.90
42479;DHT22;28110;47.080;9.476;2023-08-06T13:52:25;17.30;99.90
42479;DHT22;28110;47.080;9.476;2023-08-06T13:54:51;17.00;99.90
42479;DHT22;28110;47.080;9.476;2023-08-06T13:57:16;16.90;99.90
42479;DHT22;28110;47.080;9.476;2023-08-06T13:59:42;16.80;99.90
42479;DHT22;28110;47.080;9.476;2023-08-06T14:02:09;16.70;99.90
42479;DHT22;28110;47.080;9.476;2023-08-06T14:04:34;16.60;99.90
42479;DHT22;28110;47.080;9.476;2023-08-06T14:07:00;16.50;99.90
42479;DHT22;28110;47.080;9.476;2023-08-06T14:09:26;16.40;99.90
42479;DHT22;28110;47.080;9.476;2023-08-06T14:11:51;16.30;99.90
42479;DHT22;28110;47.080;9.476;2023-08-06T14:14:17;16.30;99.90
42479;DHT22;28110;47.080;9.476;2023-08-06T14:16:42;16.20;99.90
42479;DHT22;28110;47.080;9.476;2023-08-06T14:19:08;16.20;99.90
42479;DHT22;28110;47.080;9.476;2023-08-06T14:21:33;16.20;99.90
42479;DHT22;28110;47.080;9.476;2023-08-06T14:23:59;16.10;99.90
42479;DHT22;28110;47.080;9.476;2023-08-06T14:26:24;16.10;99.90
42479;DHT22;28110;47.080;9.476;2023-08-06T14:28:50;15.90;99.90
42479;DHT22;28110;47.080;9.476;2023-08-06T14:31:20;15.80;99.90
42479;DHT22;28110;47.080;9.476;2023-08-06T14:33:46;15.70;99.90
42479;DHT22;28110;47.080;9.476;2023-08-06T14:36:11;15.60;99.90
42479;DHT22;28110;47.080;9.476;2023-08-06T14:38:37;15.60;99.90
42479;DHT22;28110;47.080;9.476;2023-08-06T14:41:02;15.40;99.90
42479;DHT22;28110;47.080;9.476;2023-08-06T14:43:28;15.50;99.90
42479;DHT22;28110;47.080;9.476;2023-08-06T14:45:53;15.40;99.90
42479;DHT22;28110;47.080;9.476;2023-08-06T14:48:19;15.40;99.90
42479;DHT22;28110;47.080;9.476;2023-08-06T14:50:44;15.40;99.90
42479;DHT22;28110;47.080;9.476;2023-08-06T14:53:10;15.50;99.90
42479;DHT22;28110;47.080;9.476;2023-08-06T14:55:38;15.40;99.90
42479;DHT22;28110;47.080;9.476;2023-08-06T14:58:03;15.40;99.90
42479;DHT22;28110;47.080;9.476;2023-08-06T15:00:29;15.30;99.90
42479;DHT22;28110;47.080;9.476;2023-08-06T15:02:54;15.20;99.90
42479;DHT22;28110;47.080;9.476;2023-08-06T15:05:20;15.10;99.90
42479;DHT22;28110;47.080;9.476;2023-08-06T15:07:45;15.10;99.90
42479;DHT22;28110;47.080;9.476;2023-08-06T15:10:11;14.90;99.90
42479;DHT22;28110;47.080;9.476;2023-08-06T15:12:37;14.70;99.90
42479;DHT22;28110;47.080;9.476;2023-08-06T15:15:05;14.70;99.90
42479;DHT22;28110;47.080;9.476;2023-08-06T15:17:31;14.60;99.90
42479;DHT22;28110;47.080;9.476;2023-08-06T15:19:57;14.60;99.90
42479;DHT22;28110;47.080;9.476;2023-08-06T15:22:26;14.60;99.90
42479;DHT22;28110;47.080;9.476;2023-08-06T15:24:52;14.70;99.90
42479;DHT22;28110;47.080;9.476;2023-08-06T15:27:17;14.60;99.90
42479;DHT22;28110;47.080;9.476;2023-08-06T15:29:43;14.60;99.90
42479;DHT22;28110;47.080;9.476;2023-08-06T15:32:09;14.60;99.90
42479;DHT22;28110;47.080;9.476;2023-08-06T15:34:35;14.70;99.90
42479;DHT22;28110;47.080;9.476;2023-08-06T15:37:00;14.50;99.90
42479;DHT22;28110;47.080;9.476;2023-08-06T15:39:26;14.50;99.90